sensor_id;sensor_type;location;lat;lon;timestamp;temperature;humidity
32334;DHT22;18810;53.040;8.850;2023-05-10T01:45:18;16.30;96.50
32334;DHT22;18810;53.040;8.850;2023-05-10T01:47:58;16.30;96.60
32334;DHT22;18810;53.040;8.850;2023-05-10T01:50:30;16.20;96.60
32334;DHT22;18810;53.040;8.850;2023-05-10T01:52:57;16.10;96.80
32334;DHT22;18810;53.040;8.850;2023-05-10T01:55:28;16.20;96.90
32334;DHT22;18810;53.040;8.850;2023-05-10T01:58:09;16.10;96.90
32334;DHT22;18810;53.040;8.850;2023-05-10T02:00:36;16.20;96.80
32334;DHT22;18810;53.040;8.850;2023-05-10T02:03:09;16.10;97.00
32334;DHT22;18810;53.040;8.850;2023-05-10T02:05:36;16.10;97.00
32334;DHT22;18810;53.040;8.850;2023-05-10T02:08:05;16.00;97.30
32334;DHT22;18810;53.040;8.850;2023-05-10T02:10:35;16.00;97.40
32334;DHT22;18810;53.040;8.850;2023-05-10T02:13:02;15.80;97.50
32334;DHT22;18810;53.040;8.850;2023-05-10T02:15:29;15.80;97.70
32334;DHT22;18810;53.040;8.850;2023-05-10T02:17:57;15.80;98.00
32334;DHT22;18810;53.040;8.850;2023-05-10T02:20:25;15.70;98.20
32334;DHT22;18810;53.040;8.850;2023-05-10T02:22:53;15.80;98.40
32334;DHT22;18810;53.040;8.850;2023-05-10T02:25:21;15.80;98.70
32334;DHT22;18810;53.040;8.850;2023-05-10T02:27:49;15.70;99.40
32334;DHT22;18810;53.040;8.850;2023-05-10T02:30:16;15.70;99.80
32334;DHT22;18810;53.040;8.850;2023-05-10T02:32:44;15.70;99.90
32334;DHT22;18810;53.040;8.850;2023-05-10T02:35:10;15.50;99.90
32334;DHT22;18810;53.040;8.850;2023-05-10T02:37:37;15.50;99.90
32334;DHT22;18810;53.040;8.850;2023-05-10T02:40:06;15.50;99.90
32334;DHT22;18810;53.040;8.850;2023-05-10T02:42:35;15.40;99.80
32334;DHT22;18810;53.040;8.850;2023-05-10T02:45:05;15.40;99.50
32334;DHT22;18810;53.040;8.850;2023-05-10T02:47:32;15.40;99.60
32334;DHT22;18810;53.040;8.850;2023-05-10T02:49:59;15.40;99.70
32334;DHT22;18810;53.040;8.850;2023-05-10T02:52:28;15.50;99.90
32334;DHT22;18810;53.040;8.850;2023-05-10T02:54:56;15.40;99.90
32334;DHT22;18810;53.040;8.850;2023-05-10T02:57:27;15.00;99.90
32334;DHT22;18810;53.040;8.850;2023-05-10T02:59:54;14.60;99.90
32334;DHT22;18810;53.040;8.850;2023-05-10T03:02:20;14.40;99.90
32334;DHT22;18810;53.040;8.850;2023-05-10T03:04:46;14.20;99.90
32334;DHT22;18810;53.040;8.850;2023-05-10T03:07:13;14.30;99.90
32334;DHT22;18810;53.040;8.850;2023-05-10T03:09:39;14.50;99.90
32334;DHT22;18810;53.040;8.850;2023-05-10T03:12:24;14.50;99.90
32334;DHT22;18810;53.040;8.850;2023-05-10T03:17:53;14.70;99.90
32334;DHT22;18810;53.040;8.850;2023-05-10T03:20:22;14.70;99.90
32334;DHT22;18810;53.040;8.850;2023-05-10T03:25:42;14.80;99.90
32334;DHT22;18810;53.040;8.850;2023-05-10T03:28:09;14.90;99.90
32334;DHT22;18810;53.040;8.850;2023-05-10T03:30:35;14.90;99.90
32334;DHT22;18810;53.040;8.850;2023-05-10T03:33:05;14.80;99.90
32334;DHT22;18810;53.040;8.850;2023-05-10T03:35:32;14.80;99.90
32334;DHT22;18810;53.040;8.850;2023-05-10T03:38:01;14.70;99.90
32334;DHT22;18810;53.040;8.850;2023-05-10T03:40:27;14.70;99.90
32334;DHT22;18810;53.040;8.850;2023-05-10T03:42:56;14.70;99.90
32334;DHT22;18810;53.040;8.850;2023-05-10T03:45:22;14.60;99.90
32334;DHT22;18810;53.040;8.850;2023-05-10T03:47:48;14.60;99.90
32334;DHT22;18810;53.040;8.850;2023-05-10T03:50:14;14.40;99.90
32334;DHT22;18810;53.040;8.850;2023-05-10T03:52:40;14.30;99.90
32334;DHT22;18810;53.040;8.850;2023-05-10T03:55:06;14.30;99.90
32334;DHT22;18810;53.040;8.850;2023-05-10T03:57:32;14.20;99.90
32334;DHT22;18810;53.040;8.850;2023-05-10T03:59:58;14.10;99.90
32334;DHT22;18810;53.040;8.850;2023-05-10T04:02:23;14.10;99.90
32334;DHT22;18810;53.040;8.850;2023-05-10T04:04:49;14.00;99.90
32334;DHT22;18810;53.040;8.850;2023-05-10T04:07:15;13.90;99.90
32334;DHT22;18810;53.040;8.850;2023-05-10T04:09:40;13.70;99.90
32334;DHT22;18810;53.040;8.850;2023-05-10T04:12:06;13.70;99.90
32334;DHT22;18810;53.040;8.850;2023-05-10T04:14:32;13.70;99.90
32334;DHT22;18810;53.040;8.850;2023-05-10T04:16:57;13.70;99.90
32334;DHT22;18810;53.040;8.850;2023-05-10T04:19:23;13.60;99.90
32334;DHT22;18810;53.040;8.850;2023-05-10T04:21:49;13.50;99.90
32334;DHT22;18810;53.040;8.850;2023-05-10T04:24:14;13.40;99.90
32334;DHT22;18810;53.040;8.850;2023-05-10T04:26:40;13.50;99.90
32334;DHT22;18810;53.040;8.850;2023-05-10T04:29:06;13.60;99.90
32334;DHT22;18810;53.040;8.850;2023-05-10T04:31:32;13.50;99.90
32334;DHT22;18810;53.040;8.850;2023-05-10T04:33:57;13.50;99.90
32334;DHT22;18810;53.040;8.850;2023-05-10T04:36:23;13.40;99.90
32334;DHT22;18810;53.040;8.850;2023-05-10T04:38:49;13.30;99.90
32334;DHT22;18810;53.040;8.850;2023-05-10T04:41:15;13.30;99.90
32334;DHT22;18810;53.040;8.850;2023-05-10T04:43:40;13.20;99.90
32334;DHT22;18810;53.040;8.850;2023-05-10T04:46:06;13.10;99.90
32334;DHT22;18810;53.040;8.850;2023-05-10T04:48:34;13.10;99.90
32334;DHT22;18810;53.040;8.850;2023-05-10T04:51:00;13.10;99.90
32334;DHT22;18810;53.040;8.850;2023-05-10T04:53:26;13.00;99.90
32334;DHT22;18810;53.040;8.850;2023-05-10T04:55:52;13.00;99.90
32334;DHT22;18810;53.040;8.850;2023-05-10T04:58:17;13.00;99.90
32334;DHT22;18810;53.040;8.850;2023-05-10T05:00:43;12.80;99.90
32334;DHT22;18810;53.040;8.850;2023-05-10T05:03:09;12.80;99.90
32334;DHT22;18810;53.040;8.850;2023-05-10T05:05:35;12.80;99.90
32334;DHT22;18810;53.040;8.850;2023-05-10T05:08:01;12.90;99.90
32334;DHT22;18810;53.040;8.850;2023-05-10T05:10:26;12.70;99.90
32334;DHT22;18810;53.040;8.850;2023-05-10T05:12:52;12.50;99.90
32334;DHT22;18810;53.040;8.850;2023-05-10T05:15:18;12.40;99.90
32334;DHT22;18810;53.040;8.850;2023-05-10T05:17:43;12.20;99.90
32334;DHT22;18810;53.040;8.850;2023-05-10T05:20:10;12.20;99.90
32334;DHT22;18810;53.040;8.850;2023-05-10T05:22:36;12.20;99.90
32334;DHT22;18810;53.040;8.850;2023-05-10T05:25:02;12.20;99.90
32334;DHT22;18810;53.040;8.850;2023-05-10T05:27:29;12.30;99.90
32334;DHT22;18810;53.040;8.850;2023-05-10T05:29:55;12.30;99.90
32334;DHT22;18810;53.040;8.850;2023-05-10T05:32:23;12.40;99.90
32334;DHT22;18810;53.040;8.850;2023-05-10T05:34:49;12.50;99.90
32334;DHT22;18810;53.040;8.850;2023-05-10T05:37:15;12.60;99.90
32334;DHT22;18810;53.040;8.850;2023-05-10T05:39:41;12.30;99.90
32334;DHT22;18810;53.040;8.850;2023-05-10T05:42:08;12.40;99.90
32334;DHT22;18810;53.040;8.850;2023-05-10T05:44:34;12.50;99.90
32334;DHT22;18810;53.040;8.850;2023-05-10T05:47:00;12.40;99.90
32334;DHT22;18810;53.040;8.850;2023-05-10T05:49:26;12.50;99.90
32334;DHT22;18810;53.040;8.850;2023-05-10T05:51:52;12.30;99.90
32334;DHT22;18810;53.040;8.850;2023-05-10T05:54:17;12.30;99.90
32334;DHT22;18810;53.040;8.850;2023-05-10T05:56:43;12.30;99.90
32334;DHT22;18810;53.040;8.850;2023-05-10T05:59:10;12.30;99.90
32334;DHT22;18810;53.040;8.850;2023-05-10T06:01:35;12.30;99.90
32334;DHT22;18810;53.040;8.850;2023-05-10T06:04:01;12.30;99.90
32334;DHT22;18810;53.040;8.850;2023-05-10T06:06:27;12.30;99.90
32334;DHT22;18810;53.040;8.850;2023-05-10T06:08:53;12.20;99.90
32334;DHT22;18810;53.040;8.850;2023-05-10T06:11:19;12.20;99.90
32334;DHT22;18810;53.040;8.850;2023-05-10T06:13:46;12.30;99.90
32334;DHT22;18810;53.040;8.850;2023-05-10T06:16:12;12.30;99.90
32334;DHT22;18810;53.040;8.850;2023-05-10T06:21:14;12.20;99.90
32334;DHT22;18810;53.040;8.850;2023-05-10T06:23:40;12.20;99.90
32334;DHT22;18810;53.040;8.850;2023-05-10T06:26:06;12.10;99.90
32334;DHT22;18810;53.040;8.850;2023-05-10T06:28:31;12.00;99.90
32334;DHT22;18810;53.040;8.850;2023-05-10T06:30:59;12.20;99.90
32334;DHT22;18810;53.040;8.850;2023-05-10T06:33:24;12.30;99.90
32334;DHT22;18810;53.040;8.850;2023-05-10T06:35:50;12.30;99.90
32334;DHT22;18810;53.040;8.850;2023-05-10T06:38:16;12.30;99.90
32334;DHT22;18810;53.040;8.850;2023-05-10T06:40:42;12.20;99.90
32334;DHT22;18810;53.040;8.850;2023-05-10T06:43:08;12.20;99.90
32334;DHT22;18810;53.040;8.850;2023-05-10T06:45:34;12.20;99.90
32334;DHT22;18810;53.040;8.850;2023-05-10T06:48:00;12.30;99.90
32334;DHT22;18810;53.040;8.850;2023-05-10T06:50:26;12.30;99.90
32334;DHT22;18810;53.040;8.850;2023-05-10T06:52:52;12.40;99.90
32334;DHT22;18810;53.040;8.850;2023-05-10T06:55:17;12.50;99.90
32334;DHT22;18810;53.040;8.850;2023-05-10T06:57:43;12.70;99.90
32334;DHT22;18810;53.040;8.850;2023-05-10T07:00:09;12.90;99.90
32334;DHT22;18810;53.040;8.850;2023-05-10T07:02:35;12.90;99.90
32334;DHT22;18810;53.040;8.850;2023-05-10T07:05:01;12.90;99.90
32334;DHT22;18810;53.040;8.850;2023-05-10T07:07:27;13.00;99.90
32334;DHT22;18810;53.040;8.850;2023-05-10T07:09:54;12.90;99.90
32334;DHT22;18810;53.040;8.850;2023-05-10T07:12:20;12.90;99.90
32334;DHT22;18810;53.040;8.850;2023-05-10T07:14:45;13.00;99.90
32334;DHT22;18810;53.040;8.850;2023-05-10T07:17:12;13.10;99.90
32334;DHT22;18810;53.040;8.850;2023-05-10T07:19:37;13.10;99.90
32334;DHT22;18810;53.040;8.850;2023-05-10T07:22:03;13.00;99.90
32334;DHT22;18810;53.040;8.850;2023-05-10T07:24:29;13.20;99.90
32334;DHT22;18810;53.040;8.850;2023-05-10T07:26:56;13.20;99.90
32334;DHT22;18810;53.040;8.850;2023-05-10T07:29:22;13.20;99.90
32334;DHT22;18810;53.040;8.850;2023-05-10T07:31:48;13.30;99.90
32334;DHT22;18810;53.040;8.850;2023-05-10T07:34:13;13.40;99.90
32334;DHT22;18810;53.040;8.850;2023-05-10T07:36:39;13.60;99.90
32334;DHT22;18810;53.040;8.850;2023-05-10T07:39:05;13.60;99.90
32334;DHT22;18810;53.040;8.850;2023-05-10T07:41:30;13.60;99.90
32334;DHT22;18810;53.040;8.850;2023-05-10T07:43:56;13.50;99.90
32334;DHT22;18810;53.040;8.850;2023-05-10T07:46:22;13.50;99.90
32334;DHT22;18810;53.040;8.850;2023-05-10T07:48:47;13.40;99.90
32334;DHT22;18810;53.040;8.850;2023-05-10T07:51:13;13.40;99.90
32334;DHT22;18810;53.040;8.850;2023-05-10T07:53:39;13.50;99.90
32334;DHT22;18810;53.040;8.850;2023-05-10T07:56:25;13.70;99.90
32334;DHT22;18810;53.040;8.850;2023-05-10T07:58:55;13.90;99.90
32334;DHT22;18810;53.040;8.850;2023-05-10T08:01:21;14.10;99.90
32334;DHT22;18810;53.040;8.850;2023-05-10T08:03:47;14.30;99.90
32334;DHT22;18810;53.040;8.850;2023-05-10T08:06:14;14.40;99.90
32334;DHT22;18810;53.040;8.850;2023-05-10T08:08:41;14.40;99.90
32334;DHT22;18810;53.040;8.850;2023-05-10T08:11:06;14.50;99.90
32334;DHT22;18810;53.040;8.850;2023-05-10T08:13:32;14.40;99.90
32334;DHT22;18810;53.040;8.850;2023-05-10T08:15:58;14.50;99.90
32334;DHT22;18810;53.040;8.850;2023-05-10T08:18:24;14.60;99.90
32334;DHT22;18810;53.040;8.850;2023-05-10T08:20:50;14.70;99.90
32334;DHT22;18810;53.040;8.850;2023-05-10T08:23:15;14.70;99.90
32334;DHT22;18810;53.040;8.850;2023-05-10T08:25:41;14.70;99.90
32334;DHT22;18810;53.040;8.850;2023-05-10T08:28:07;14.90;99.90
32334;DHT22;18810;53.040;8.850;2023-05-10T08:30:33;15.10;99.90
32334;DHT22;18810;53.040;8.850;2023-05-10T08:32:58;15.40;99.90
32334;DHT22;18810;53.040;8.850;2023-05-10T08:35:24;15.50;99.90
32334;DHT22;18810;53.040;8.850;2023-05-10T08:37:51;15.80;99.90
32334;DHT22;18810;53.040;8.850;2023-05-10T08:40:19;16.10;99.90
32334;DHT22;18810;53.040;8.850;2023-05-10T08:42:54;16.60;99.90
32334;DHT22;18810;53.040;8.850;2023-05-10T08:45:22;16.80;99.90
32334;DHT22;18810;53.040;8.850;2023-05-10T08:47:50;16.80;99.90
32334;DHT22;18810;53.040;8.850;2023-05-10T08:50:19;17.10;99.90
32334;DHT22;18810;53.040;8.850;2023-05-10T08:52:46;17.30;99.90
32334;DHT22;18810;53.040;8.850;2023-05-10T08:55:14;17.00;99.90
32334;DHT22;18810;53.040;8.850;2023-05-10T08:57:40;16.80;99.90
32334;DHT22;18810;53.040;8.850;2023-05-10T09:00:07;16.90;99.90
32334;DHT22;18810;53.040;8.850;2023-05-10T09:02:34;16.80;99.90
32334;DHT22;18810;53.040;8.850;2023-05-10T09:05:00;16.70;99.90
32334;DHT22;18810;53.040;8.850;2023-05-10T09:07:27;16.90;99.90
32334;DHT22;18810;53.040;8.850;2023-05-10T09:09:53;17.30;99.90
32334;DHT22;18810;53.040;8.850;2023-05-10T09:12:19;17.50;99.90
32334;DHT22;18810;53.040;8.850;2023-05-10T09:14:45;17.60;99.90
32334;DHT22;18810;53.040;8.850;2023-05-10T09:17:11;17.70;99.90
32334;DHT22;18810;53.040;8.850;2023-05-10T09:19:37;18.10;99.90
32334;DHT22;18810;53.040;8.850;2023-05-10T09:22:04;18.10;99.90
32334;DHT22;18810;53.040;8.850;2023-05-10T09:24:30;17.90;99.90
32334;DHT22;18810;53.040;8.850;2023-05-10T09:26:57;17.40;99.90
32334;DHT22;18810;53.040;8.850;2023-05-10T09:29:23;17.30;99.90
32334;DHT22;18810;53.040;8.850;2023-05-10T09:31:52;17.50;99.90
32334;DHT22;18810;53.040;8.850;2023-05-10T09:34:29;17.40;99.90
32334;DHT22;18810;53.040;8.850;2023-05-10T09:36:59;17.20;99.90
32334;DHT22;18810;53.040;8.850;2023-05-10T09:39:38;17.10;99.90
32334;DHT22;18810;53.040;8.850;2023-05-10T09:42:06;17.10;99.90
32334;DHT22;18810;53.040;8.850;2023-05-10T09:44:33;17.10;99.90
32334;DHT22;18810;53.040;8.850;2023-05-10T09:47:00;17.10;99.90
32334;DHT22;18810;53.040;8.850;2023-05-10T09:49:26;17.20;99.90
32334;DHT22;18810;53.040;8.850;2023-05-10T09:52:03;17.20;99.90
32334;DHT22;18810;53.040;8.850;2023-05-10T09:54:29;17.60;99.90
32334;DHT22;18810;53.040;8.850;2023-05-10T09:56:56;17.90;99.90
32334;DHT22;18810;53.040;8.850;2023-05-10T09:59:21;18.00;99.90
32334;DHT22;18810;53.040;8.850;2023-05-10T10:01:50;17.80;99.90
32334;DHT22;18810;53.040;8.850;2023-05-10T10:04:17;17.60;99.90
32334;DHT22;18810;53.040;8.850;2023-05-10T10:06:43;17.30;99.90
32334;DHT22;18810;53.040;8.850;2023-05-10T10:09:09;17.20;99.90
32334;DHT22;18810;53.040;8.850;2023-05-10T10:11:38;17.30;99.90
32334;DHT22;18810;53.040;8.850;2023-05-10T10:14:05;17.40;99.90
32334;DHT22;18810;53.040;8.850;2023-05-10T10:16:31;18.00;99.90
32334;DHT22;18810;53.040;8.850;2023-05-10T10:18:58;18.70;99.90
32334;DHT22;18810;53.040;8.850;2023-05-10T10:21:23;18.40;99.90
32334;DHT22;18810;53.040;8.850;2023-05-10T10:23:50;17.60;99.90
32334;DHT22;18810;53.040;8.850;2023-05-10T10:26:18;16.90;99.90
32334;DHT22;18810;53.040;8.850;2023-05-10T10:34:11;16.30;99.90
32334;DHT22;18810;53.040;8.850;2023-05-10T10:36:47;16.40;99.90
32334;DHT22;18810;53.040;8.850;2023-05-10T10:39:14;16.50;99.90
32334;DHT22;18810;53.040;8.850;2023-05-10T10:55:08;18.50;99.90
32334;DHT22;18810;53.040;8.850;2023-05-10T11:02:50;18.60;99.90
32334;DHT22;18810;53.040;8.850;2023-05-10T11:07:58;18.90;99.90
32334;DHT22;18810;53.040;8.850;2023-05-10T11:10:25;18.60;99.90
32334;DHT22;18810;53.040;8.850;2023-05-10T11:15:33;18.90;99.90
32334;DHT22;18810;53.040;8.850;2023-05-10T11:18:01;19.30;99.90
32334;DHT22;18810;53.040;8.850;2023-05-10T11:20:41;19.40;99.90
32334;DHT22;18810;53.040;8.850;2023-05-10T11:23:14;19.10;99.90
32334;DHT22;18810;53.040;8.850;2023-05-10T11:25:44;18.90;99.90
32334;DHT22;18810;53.040;8.850;2023-05-10T11:28:12;18.60;99.90
32334;DHT22;18810;53.040;8.850;2023-05-10T11:30:39;18.50;99.90
32334;DHT22;18810;53.040;8.850;2023-05-10T11:33:06;18.60;99.90
32334;DHT22;18810;53.040;8.850;2023-05-10T11:35:37;18.90;99.90
32334;DHT22;18810;53.040;8.850;2023-05-10T11:38:08;19.70;99.90
32334;DHT22;18810;53.040;8.850;2023-05-10T11:40:34;20.30;99.90
32334;DHT22;18810;53.040;8.850;2023-05-10T11:43:00;21.10;99.90
32334;DHT22;18810;53.040;8.850;2023-05-10T11:45:27;21.40;99.90
32334;DHT22;18810;53.040;8.850;2023-05-10T11:47:57;21.60;99.90
32334;DHT22;18810;53.040;8.850;2023-05-10T11:50:24;21.10;99.90
32334;DHT22;18810;53.040;8.850;2023-05-10T11:52:57;20.40;99.90
32334;DHT22;18810;53.040;8.850;2023-05-10T11:55:24;20.10;99.90
32334;DHT22;18810;53.040;8.850;2023-05-10T11:58:01;20.10;99.90
32334;DHT22;18810;53.040;8.850;2023-05-10T12:00:27;20.10;99.90
32334;DHT22;18810;53.040;8.850;2023-05-10T12:02:53;19.90;99.90
32334;DHT22;18810;53.040;8.850;2023-05-10T12:05:19;19.80;99.90
32334;DHT22;18810;53.040;8.850;2023-05-10T12:07:45;19.40;99.90
32334;DHT22;18810;53.040;8.850;2023-05-10T12:10:13;18.70;99.90
32334;DHT22;18810;53.040;8.850;2023-05-10T12:12:45;17.80;99.90
32334;DHT22;18810;53.040;8.850;2023-05-10T12:15:20;17.00;99.90
32334;DHT22;18810;53.040;8.850;2023-05-10T12:17:47;16.70;99.90
32334;DHT22;18810;53.040;8.850;2023-05-10T12:20:24;16.80;99.90
32334;DHT22;18810;53.040;8.850;2023-05-10T12:22:54;16.90;99.90
32334;DHT22;18810;53.040;8.850;2023-05-10T12:25:23;17.30;99.90
32334;DHT22;18810;53.040;8.850;2023-05-10T12:27:56;17.40;99.90
32334;DHT22;18810;53.040;8.850;2023-05-10T12:30:27;17.50;99.90
32334;DHT22;18810;53.040;8.850;2023-05-10T12:32:54;17.40;99.90
32334;DHT22;18810;53.040;8.850;2023-05-10T12:35:24;17.70;99.90
32334;DHT22;18810;53.040;8.850;2023-05-10T12:37:53;18.10;99.90
32334;DHT22;18810;53.040;8.850;2023-05-10T12:40:18;18.00;99.90
32334;DHT22;18810;53.040;8.850;2023-05-10T12:42:44;18.00;99.90
32334;DHT22;18810;53.040;8.850;2023-05-10T12:45:14;18.10;99.90
32334;DHT22;18810;53.040;8.850;2023-05-10T12:50:06;18.40;99.90
32334;DHT22;18810;53.040;8.850;2023-05-10T12:52:32;18.60;99.90
32334;DHT22;18810;53.040;8.850;2023-05-10T12:54:58;19.00;99.90
32334;DHT22;18810;53.040;8.850;2023-05-10T12:57:24;19.40;99.90
32334;DHT22;18810;53.040;8.850;2023-05-10T12:59:50;19.70;99.90
32334;DHT22;18810;53.040;8.850;2023-05-10T13:04:46;19.70;99.90
32334;DHT22;18810;53.040;8.850;2023-05-10T13:07:12;20.00;99.90
32334;DHT22;18810;53.040;8.850;2023-05-10T13:09:38;19.90;99.90
32334;DHT22;18810;53.040;8.850;2023-05-10T13:12:04;19.70;99.90
32334;DHT22;18810;53.040;8.850;2023-05-10T13:14:30;19.60;99.90
32334;DHT22;18810;53.040;8.850;2023-05-10T13:16:56;19.40;99.90
32334;DHT22;18810;53.040;8.850;2023-05-10T13:19:22;19.20;99.90
32334;DHT22;18810;53.040;8.850;2023-05-10T13:21:48;19.10;99.90
32334;DHT22;18810;53.040;8.850;2023-05-10T13:24:13;19.90;99.90
32334;DHT22;18810;53.040;8.850;2023-05-10T13:26:40;20.00;99.90
32334;DHT22;18810;53.040;8.850;2023-05-10T13:29:06;20.20;99.90
32334;DHT22;18810;53.040;8.850;2023-05-10T13:31:32;20.50;99.90
32334;DHT22;18810;53.040;8.850;2023-05-10T13:33:57;20.60;99.90
32334;DHT22;18810;53.040;8.850;2023-05-10T13:36:23;20.60;99.90
32334;DHT22;18810;53.040;8.850;2023-05-10T13:38:48;20.40;99.90
32334;DHT22;18810;53.040;8.850;2023-05-10T13:41:14;19.60;99.90
32334;DHT22;18810;53.040;8.850;2023-05-10T13:43:40;19.50;99.90
32334;DHT22;18810;53.040;8.850;2023-05-10T13:46:05;19.00;99.90
32334;DHT22;18810;53.040;8.850;2023-05-10T13:48:31;18.90;99.90
32334;DHT22;18810;53.040;8.850;2023-05-10T13:50:57;18.90;99.90
32334;DHT22;18810;53.040;8.850;2023-05-10T13:55:49;19.80;99.90
32334;DHT22;18810;53.040;8.850;2023-05-10T13:58:14;19.70;99.90
32334;DHT22;18810;53.040;8.850;2023-05-10T14:03:06;19.40;99.90
32334;DHT22;18810;53.040;8.850;2023-05-10T14:05:34;19.60;99.90
32334;DHT22;18810;53.040;8.850;2023-05-10T14:07:59;20.10;99.90
32334;DHT22;18810;53.040;8.850;2023-05-10T14:10:25;20.10;99.90
32334;DHT22;18810;53.040;8.850;2023-05-10T14:12:51;20.50;99.90
32334;DHT22;18810;53.040;8.850;2023-05-10T14:17:43;20.60;99.90
32334;DHT22;18810;53.040;8.850;2023-05-10T14:20:09;21.90;99.90
32334;DHT22;18810;53.040;8.850;2023-05-10T14:22:35;21.90;99.90
32334;DHT22;18810;53.040;8.850;2023-05-10T14:25:00;22.30;99.90
32334;DHT22;18810;53.040;8.850;2023-05-10T14:27:26;23.20;99.90
32334;DHT22;18810;53.040;8.850;2023-05-10T14:29:52;24.00;99.90
32334;DHT22;18810;53.040;8.850;2023-05-10T14:32:18;24.80;99.90
32334;DHT22;18810;53.040;8.850;2023-05-10T14:34:44;25.70;99.60
32334;DHT22;18810;53.040;8.850;2023-05-10T14:37:10;25.60;98.60
32334;DHT22;18810;53.040;8.850;2023-05-10T14:39:36;24.10;99.80
32334;DHT22;18810;53.040;8.850;2023-05-10T14:42:03;24.00;99.90
32334;DHT22;18810;53.040;8.850;2023-05-10T14:44:28;24.20;99.90
32334;DHT22;18810;53.040;8.850;2023-05-10T14:46:54;24.20;99.90
32334;DHT22;18810;53.040;8.850;2023-05-10T14:49:21;23.30;99.90
32334;DHT22;18810;53.040;8.850;2023-05-10T14:51:48;23.30;99.90
32334;DHT22;18810;53.040;8.850;2023-05-10T14:54:14;23.00;99.90
32334;DHT22;18810;53.040;8.850;2023-05-10T14:56:39;22.70;99.90
32334;DHT22;18810;53.040;8.850;2023-05-10T14:59:07;22.50;99.90
32334;DHT22;18810;53.040;8.850;2023-05-10T15:01:33;22.00;99.90
32334;DHT22;18810;53.040;8.850;2023-05-10T15:04:00;21.70;99.90
32334;DHT22;18810;53.040;8.850;2023-05-10T15:06:35;21.70;99.90
32334;DHT22;18810;53.040;8.850;2023-05-10T15:09:02;21.40;99.90
32334;DHT22;18810;53.040;8.850;2023-05-10T15:11:31;21.20;99.90
32334;DHT22;18810;53.040;8.850;2023-05-10T15:13:57;21.40;99.90
32334;DHT22;18810;53.040;8.850;2023-05-10T15:16:23;21.50;99.90
32334;DHT22;18810;53.040;8.850;2023-05-10T15:18:48;21.40;99.90
32334;DHT22;18810;53.040;8.850;2023-05-10T15:21:14;21.40;99.90
32334;DHT22;18810;53.040;8.850;2023-05-10T15:23:40;21.30;99.90
32334;DHT22;18810;53.040;8.850;2023-05-10T15:26:05;21.40;99.90
32334;DHT22;18810;53.040;8.850;2023-05-10T15:28:31;21.60;99.90
32334;DHT22;18810;53.040;8.850;2023-05-10T15:30:57;21.50;99.90
32334;DHT22;18810;53.040;8.850;2023-05-10T15:35:48;23.30;99.90
32334;DHT22;18810;53.040;8.850;2023-05-10T15:38:14;24.40;99.90
32334;DHT22;18810;53.040;8.850;2023-05-10T15:40:40;25.10;99.40
32334;DHT22;18810;53.040;8.850;2023-05-10T15:43:06;25.50;98.40
32334;DHT22;18810;53.040;8.850;2023-05-10T15:45:31;25.40;97.80
32334;DHT22;18810;53.040;8.850;2023-05-10T15:47:58;24.30;98.70
32334;DHT22;18810;53.040;8.850;2023-05-10T15:50:24;24.00;99.50
32334;DHT22;18810;53.040;8.850;2023-05-10T15:52:50;23.90;99.50
32334;DHT22;18810;53.040;8.850;2023-05-10T15:55:16;23.00;99.90
32334;DHT22;18810;53.040;8.850;2023-05-10T15:57:43;22.00;99.90
32334;DHT22;18810;53.040;8.850;2023-05-10T16:00:09;21.50;99.90
32334;DHT22;18810;53.040;8.850;2023-05-10T16:02:35;21.30;99.90
32334;DHT22;18810;53.040;8.850;2023-05-10T16:05:02;21.10;99.90
32334;DHT22;18810;53.040;8.850;2023-05-10T16:07:27;20.90;99.90
32334;DHT22;18810;53.040;8.850;2023-05-10T16:09:53;20.50;99.90
32334;DHT22;18810;53.040;8.850;2023-05-10T16:14:45;20.00;99.90
32334;DHT22;18810;53.040;8.850;2023-05-10T16:17:11;19.90;99.90
32334;DHT22;18810;53.040;8.850;2023-05-10T16:19:36;20.10;99.90
32334;DHT22;18810;53.040;8.850;2023-05-10T16:22:02;20.20;99.90
32334;DHT22;18810;53.040;8.850;2023-05-10T16:24:28;21.40;99.90
32334;DHT22;18810;53.040;8.850;2023-05-10T16:26:54;22.10;99.90
32334;DHT22;18810;53.040;8.850;2023-05-10T16:29:20;21.90;99.90
32334;DHT22;18810;53.040;8.850;2023-05-10T16:31:45;21.60;99.90
32334;DHT22;18810;53.040;8.850;2023-05-10T16:36:37;23.40;99.90
32334;DHT22;18810;53.040;8.850;2023-05-10T16:39:02;24.60;99.90
32334;DHT22;18810;53.040;8.850;2023-05-10T16:41:31;26.00;98.90
32334;DHT22;18810;53.040;8.850;2023-05-10T16:43:57;26.40;97.00
32334;DHT22;18810;53.040;8.850;2023-05-10T16:46:22;26.10;96.60
32334;DHT22;18810;53.040;8.850;2023-05-10T16:48:48;25.90;97.60
32334;DHT22;18810;53.040;8.850;2023-05-10T16:51:13;26.40;96.90
32334;DHT22;18810;53.040;8.850;2023-05-10T16:53:39;25.60;96.50
32334;DHT22;18810;53.040;8.850;2023-05-10T16:56:05;24.70;98.20
32334;DHT22;18810;53.040;8.850;2023-05-10T16:58:31;24.50;98.80
32334;DHT22;18810;53.040;8.850;2023-05-10T17:00:56;24.40;98.70
32334;DHT22;18810;53.040;8.850;2023-05-10T17:03:22;24.00;99.10
32334;DHT22;18810;53.040;8.850;2023-05-10T17:08:15;22.90;99.90
32334;DHT22;18810;53.040;8.850;2023-05-10T17:10:40;22.60;99.90
32334;DHT22;18810;53.040;8.850;2023-05-10T17:13:06;22.40;99.90
32334;DHT22;18810;53.040;8.850;2023-05-10T17:15:34;21.90;99.90
32334;DHT22;18810;53.040;8.850;2023-05-10T17:17:59;21.80;99.90
32334;DHT22;18810;53.040;8.850;2023-05-10T17:20:25;21.50;99.90
32334;DHT22;18810;53.040;8.850;2023-05-10T17:22:51;21.10;99.90
32334;DHT22;18810;53.040;8.850;2023-05-10T17:25:18;21.00;99.90
32334;DHT22;18810;53.040;8.850;2023-05-10T17:27:43;20.90;99.90
32334;DHT22;18810;53.040;8.850;2023-05-10T17:30:09;20.80;99.90
32334;DHT22;18810;53.040;8.850;2023-05-10T17:32:35;20.90;99.90
32334;DHT22;18810;53.040;8.850;2023-05-10T17:35:01;21.10;99.90
32334;DHT22;18810;53.040;8.850;2023-05-10T17:37:28;21.30;99.90
32334;DHT22;18810;53.040;8.850;2023-05-10T17:39:54;21.70;99.90
32334;DHT22;18810;53.040;8.850;2023-05-10T17:42:19;21.50;99.90
32334;DHT22;18810;53.040;8.850;2023-05-10T17:44:45;21.60;99.90
32334;DHT22;18810;53.040;8.850;2023-05-10T17:47:11;21.50;99.90
32334;DHT22;18810;53.040;8.850;2023-05-10T17:49:36;21.20;99.90
32334;DHT22;18810;53.040;8.850;2023-05-10T17:52:04;21.20;99.90
32334;DHT22;18810;53.040;8.850;2023-05-10T17:54:29;21.20;99.90
32334;DHT22;18810;53.040;8.850;2023-05-10T17:56:55;21.20;99.90
32334;DHT22;18810;53.040;8.850;2023-05-10T17:59:22;21.10;99.90
32334;DHT22;18810;53.040;8.850;2023-05-10T18:01:48;21.10;99.90
32334;DHT22;18810;53.040;8.850;2023-05-10T18:04:13;20.90;99.90
32334;DHT22;18810;53.040;8.850;2023-05-10T18:06:39;20.80;99.90
32334;DHT22;18810;53.040;8.850;2023-05-10T18:09:05;20.70;99.90
32334;DHT22;18810;53.040;8.850;2023-05-10T18:11:33;20.70;99.90